sensor_id;sensor_type;location;lat;lon;timestamp;pressure;altitude;pressure_sealevel;temperature;humidity
32324;BME280;25666;44.350;9.222;2023-11-19T00:00:54;102303.78;;;9.34;100.00
32324;BME280;25666;44.350;9.222;2023-11-19T00:03:22;102300.63;;;9.40;100.00
32324;BME280;25666;44.350;9.222;2023-11-19T00:05:48;102308.28;;;9.48;100.00
32324;BME280;25666;44.350;9.222;2023-11-19T00:08:16;102306.19;;;9.40;100.00
32324;BME280;25666;44.350;9.222;2023-11-19T00:10:45;102308.56;;;9.33;100.00
32324;BME280;25666;44.350;9.222;2023-11-19T00:13:11;102306.72;;;9.42;100.00
32324;BME280;25666;44.350;9.222;2023-11-19T00:15:37;102299.22;;;9.43;100.00
32324;BME280;25666;44.350;9.222;2023-11-19T00:18:04;102296.56;;;9.51;100.00
32324;BME280;25666;44.350;9.222;2023-11-19T00:20:30;102291.72;;;9.57;100.00
32324;BME280;25666;44.350;9.222;2023-11-19T00:22:56;102291.00;;;9.51;100.00
32324;BME280;25666;44.350;9.222;2023-11-19T00:25:21;102293.06;;;9.46;100.00
32324;BME280;25666;44.350;9.222;2023-11-19T00:27:48;102295.47;;;9.34;100.00
32324;BME280;25666;44.350;9.222;2023-11-19T00:30:14;102295.06;;;9.27;100.00
32324;BME280;25666;44.350;9.222;2023-11-19T00:32:43;102293.00;;;9.32;100.00
32324;BME280;25666;44.350;9.222;2023-11-19T00:35:09;102281.94;;;9.27;100.00
32324;BME280;25666;44.350;9.222;2023-11-19T00:37:41;102280.41;;;9.21;100.00
32324;BME280;25666;44.350;9.222;2023-11-19T00:40:08;102286.06;;;9.16;100.00
32324;BME280;25666;44.350;9.222;2023-11-19T00:42:35;102297.81;;;9.27;100.00
32324;BME280;25666;44.350;9.222;2023-11-19T00:45:01;102304.28;;;9.22;100.00
32324;BME280;25666;44.350;9.222;2023-11-19T00:47:30;102294.22;;;9.26;100.00
32324;BME280;25666;44.350;9.222;2023-11-19T00:49:59;102283.00;;;9.31;100.00
32324;BME280;25666;44.350;9.222;2023-11-19T00:52:26;102284.72;;;9.27;100.00
32324;BME280;25666;44.350;9.222;2023-11-19T00:54:53;102284.72;;;9.27;100.00
32324;BME280;25666;44.350;9.222;2023-11-19T00:57:19;102279.31;;;9.36;100.00
32324;BME280;25666;44.350;9.222;2023-11-19T00:59:45;102272.81;;;9.27;100.00
32324;BME280;25666;44.350;9.222;2023-11-19T01:02:10;102275.66;;;9.22;100.00
32324;BME280;25666;44.350;9.222;2023-11-19T01:04:36;102278.59;;;9.30;100.00
32324;BME280;25666;44.350;9.222;2023-11-19T01:07:02;102282.94;;;9.36;100.00
32324;BME280;25666;44.350;9.222;2023-11-19T01:09:38;102280.94;;;9.37;100.00
32324;BME280;25666;44.350;9.222;2023-11-19T01:12:04;102274.38;;;9.33;100.00
32324;BME280;25666;44.350;9.222;2023-11-19T01:14:30;102276.00;;;9.34;100.00
32324;BME280;25666;44.350;9.222;2023-11-19T01:16:56;102270.66;;;9.37;100.00
32324;BME280;25666;44.350;9.222;2023-11-19T01:19:22;102270.06;;;9.40;100.00
32324;BME280;25666;44.350;9.222;2023-11-19T01:21:49;102276.38;;;9.46;100.00
32324;BME280;25666;44.350;9.222;2023-11-19T01:24:15;102277.38;;;9.50;100.00
32324;BME280;25666;44.350;9.222;2023-11-19T01:26:42;102282.72;;;9.46;100.00
32324;BME280;25666;44.350;9.222;2023-11-19T01:29:11;102281.38;;;9.44;100.00
32324;BME280;25666;44.350;9.222;2023-11-19T01:31:43;102283.00;;;9.31;100.00
32324;BME280;25666;44.350;9.222;2023-11-19T01:34:10;102285.50;;;9.33;100.00
32324;BME280;25666;44.350;9.222;2023-11-19T01:36:37;102283.53;;;9.33;100.00
32324;BME280;25666;44.350;9.222;2023-11-19T01:39:02;102275.81;;;9.30;100.00
32324;BME280;25666;44.350;9.222;2023-11-19T01:41:36;102275.72;;;9.35;100.00
32324;BME280;25666;44.350;9.222;2023-11-19T01:44:03;102268.94;;;9.41;100.00
32324;BME280;25666;44.350;9.222;2023-11-19T01:46:29;102276.09;;;9.29;100.00
32324;BME280;25666;44.350;9.222;2023-11-19T01:48:55;102278.72;;;9.39;100.00
32324;BME280;25666;44.350;9.222;2023-11-19T01:51:21;102274.59;;;9.36;100.00
32324;BME280;25666;44.350;9.222;2023-11-19T01:53:48;102270.25;;;9.30;100.00
32324;BME280;25666;44.350;9.222;2023-11-19T01:56:14;102253.28;;;9.32;100.00
32324;BME280;25666;44.350;9.222;2023-11-19T01:58:43;102262.00;;;9.25;100.00
32324;BME280;25666;44.350;9.222;2023-11-19T02:01:10;102258.72;;;9.37;100.00
32324;BME280;25666;44.350;9.222;2023-11-19T02:03:38;102244.66;;;9.33;100.00
32324;BME280;25666;44.350;9.222;2023-11-19T02:06:04;102237.94;;;9.34;100.00
32324;BME280;25666;44.350;9.222;2023-11-19T02:08:30;102229.59;;;9.34;100.00
32324;BME280;25666;44.350;9.222;2023-11-19T02:10:57;102242.25;;;9.27;100.00
32324;BME280;25666;44.350;9.222;2023-11-19T02:13:26;102251.59;;;9.31;100.00
32324;BME280;25666;44.350;9.222;2023-11-19T02:15:52;102243.72;;;9.38;100.00
32324;BME280;25666;44.350;9.222;2023-11-19T02:18:22;102239.38;;;9.32;100.00
32324;BME280;25666;44.350;9.222;2023-11-19T02:20:52;102241.03;;;9.33;100.00
32324;BME280;25666;44.350;9.222;2023-11-19T02:23:19;102242.25;;;9.27;100.00
32324;BME280;25666;44.350;9.222;2023-11-19T02:28:36;102232.69;;;9.46;100.00
32324;BME280;25666;44.350;9.222;2023-11-19T02:31:02;102224.97;;;9.43;100.00
32324;BME280;25666;44.350;9.222;2023-11-19T02:33:30;102219.22;;;9.53;100.00
32324;BME280;25666;44.350;9.222;2023-11-19T02:35:56;102222.72;;;9.59;100.00
32324;BME280;25666;44.350;9.222;2023-11-19T02:38:21;102217.91;;;9.64;100.00
32324;BME280;25666;44.350;9.222;2023-11-19T02:40:48;102210.59;;;9.68;100.00
32324;BME280;25666;44.350;9.222;2023-11-19T02:43:15;102206.69;;;9.69;100.00
32324;BME280;25666;44.350;9.222;2023-11-19T02:45:42;102204.31;;;9.77;100.00
32324;BME280;25666;44.350;9.222;2023-11-19T02:48:11;102200.81;;;9.85;100.00
32324;BME280;25666;44.350;9.222;2023-11-19T02:50:37;102211.84;;;9.76;100.00
32324;BME280;25666;44.350;9.222;2023-11-19T02:53:02;102206.56;;;9.75;100.00
32324;BME280;25666;44.350;9.222;2023-11-19T02:55:28;102208.31;;;9.84;100.00
32324;BME280;25666;44.350;9.222;2023-11-19T02:57:56;102205.34;;;9.81;100.00
32324;BME280;25666;44.350;9.222;2023-11-19T03:00:24;102190.81;;;9.97;100.00
32324;BME280;25666;44.350;9.222;2023-11-19T03:02:51;102187.72;;;9.99;100.00
32324;BME280;25666;44.350;9.222;2023-11-19T03:05:26;102191.44;;;9.81;100.00
32324;BME280;25666;44.350;9.222;2023-11-19T03:07:54;102193.91;;;9.82;100.00
32324;BME280;25666;44.350;9.222;2023-11-19T03:10:20;102184.19;;;9.93;100.00
32324;BME280;25666;44.350;9.222;2023-11-19T03:12:46;102188.34;;;9.96;100.00
32324;BME280;25666;44.350;9.222;2023-11-19T03:15:11;102182.88;;;10.04;100.00
32324;BME280;25666;44.350;9.222;2023-11-19T03:17:41;102191.84;;;10.01;100.00
32324;BME280;25666;44.350;9.222;2023-11-19T03:20:10;102183.16;;;10.03;100.00
32324;BME280;25666;44.350;9.222;2023-11-19T03:22:39;102183.56;;;10.10;100.00
32324;BME280;25666;44.350;9.222;2023-11-19T03:25:07;102186.97;;;10.07;100.00
32324;BME280;25666;44.350;9.222;2023-11-19T03:27:40;102182.44;;;10.11;100.00
32324;BME280;25666;44.350;9.222;2023-11-19T03:30:08;102188.09;;;10.06;100.00
32324;BME280;25666;44.350;9.222;2023-11-19T03:32:35;102193.56;;;10.11;100.00
32324;BME280;25666;44.350;9.222;2023-11-19T03:35:04;102188.25;;;10.14;100.00
32324;BME280;25666;44.350;9.222;2023-11-19T03:37:32;102195.31;;;10.07;100.00
32324;BME280;25666;44.350;9.222;2023-11-19T03:39:59;102195.75;;;10.14;100.00
32324;BME280;25666;44.350;9.222;2023-11-19T03:42:26;102187.28;;;10.19;100.00
32324;BME280;25666;44.350;9.222;2023-11-19T03:44:53;102193.19;;;10.17;100.00
32324;BME280;25666;44.350;9.222;2023-11-19T03:47:19;102182.47;;;9.97;100.00
32324;BME280;25666;44.350;9.222;2023-11-19T03:49:51;102187.63;;;10.17;100.00
32324;BME280;25666;44.350;9.222;2023-11-19T03:52:17;102180.78;;;10.10;100.00
32324;BME280;25666;44.350;9.222;2023-11-19T03:54:44;102183.69;;;10.05;100.00
32324;BME280;25666;44.350;9.222;2023-11-19T03:57:09;102184.91;;;10.12;100.00
32324;BME280;25666;44.350;9.222;2023-11-19T03:59:39;102178.00;;;10.10;100.00
32324;BME280;25666;44.350;9.222;2023-11-19T04:02:05;102172.16;;;9.98;100.00
32324;BME280;25666;44.350;9.222;2023-11-19T04:04:31;102169.38;;;9.98;100.00
32324;BME280;25666;44.350;9.222;2023-11-19T04:06:57;102171.75;;;9.91;100.00
32324;BME280;25666;44.350;9.222;2023-11-19T04:09:23;102164.34;;;9.86;100.00
32324;BME280;25666;44.350;9.222;2023-11-19T04:11:49;102170.31;;;9.93;100.00
32324;BME280;25666;44.350;9.222;2023-11-19T04:14:15;102165.78;;;9.84;100.00
32324;BME280;25666;44.350;9.222;2023-11-19T04:16:44;102177.53;;;9.94;100.00
32324;BME280;25666;44.350;9.222;2023-11-19T04:19:11;102184.19;;;9.93;100.00
32324;BME280;25666;44.350;9.222;2023-11-19T04:21:37;102177.44;;;9.86;100.00
32324;BME280;25666;44.350;9.222;2023-11-19T04:24:02;102174.75;;;9.94;100.00
32324;BME280;25666;44.350;9.222;2023-11-19T04:26:28;102168.88;;;9.96;100.00
32324;BME280;25666;44.350;9.222;2023-11-19T04:28:57;102163.09;;;9.92;100.00
32324;BME280;25666;44.350;9.222;2023-11-19T04:31:22;102167.00;;;9.91;100.00
32324;BME280;25666;44.350;9.222;2023-11-19T04:33:48;102160.13;;;9.89;100.00
32324;BME280;25666;44.350;9.222;2023-11-19T04:36:18;102150.66;;;9.90;100.00
32324;BME280;25666;44.350;9.222;2023-11-19T04:38:44;102150.25;;;9.83;100.00
32324;BME280;25666;44.350;9.222;2023-11-19T04:41:10;102149.81;;;9.89;100.00
32324;BME280;25666;44.350;9.222;2023-11-19T04:43:36;102143.34;;;9.80;100.00
32324;BME280;25666;44.350;9.222;2023-11-19T04:46:03;102140.47;;;9.72;100.00
32324;BME280;25666;44.350;9.222;2023-11-19T04:48:29;102146.13;;;9.80;100.00
32324;BME280;25666;44.350;9.222;2023-11-19T04:50:55;102145.19;;;9.85;100.00
32324;BME280;25666;44.350;9.222;2023-11-19T04:53:20;102134.88;;;9.85;100.00
32324;BME280;25666;44.350;9.222;2023-11-19T04:55:46;102136.63;;;9.81;100.00
32324;BME280;25666;44.350;9.222;2023-11-19T04:58:12;102135.31;;;9.79;100.00
32324;BME280;25666;44.350;9.222;2023-11-19T05:00:38;102134.59;;;9.73;100.00
32324;BME280;25666;44.350;9.222;2023-11-19T05:03:04;102126.69;;;9.66;100.00
32324;BME280;25666;44.350;9.222;2023-11-19T05:05:32;102134.06;;;9.71;100.00
32324;BME280;25666;44.350;9.222;2023-11-19T05:07:57;102127.28;;;9.77;100.00
32324;BME280;25666;44.350;9.222;2023-11-19T05:10:23;102120.16;;;9.71;100.00
32324;BME280;25666;44.350;9.222;2023-11-19T05:12:50;102122.03;;;9.62;100.00
32324;BME280;25666;44.350;9.222;2023-11-19T05:15:17;102120.09;;;9.62;100.00
32324;BME280;25666;44.350;9.222;2023-11-19T05:17:43;102127.19;;;9.68;100.00
32324;BME280;25666;44.350;9.222;2023-11-19T05:20:09;102125.03;;;9.65;100.00
32324;BME280;25666;44.350;9.222;2023-11-19T05:22:42;102131.63;;;9.69;100.00
32324;BME280;25666;44.350;9.222;2023-11-19T05:25:08;102123.28;;;9.69;100.00
32324;BME280;25666;44.350;9.222;2023-11-19T05:27:37;102128.91;;;9.78;100.00
32324;BME280;25666;44.350;9.222;2023-11-19T05:30:05;102126.97;;;9.79;100.00
32324;BME280;25666;44.350;9.222;2023-11-19T05:32:36;102126.47;;;9.77;100.00
32324;BME280;25666;44.350;9.222;2023-11-19T05:35:01;102123.56;;;9.82;100.00
32324;BME280;25666;44.350;9.222;2023-11-19T05:37:27;102121.81;;;9.86;100.00
32324;BME280;25666;44.350;9.222;2023-11-19T05:39:52;102116.13;;;9.91;100.00
32324;BME280;25666;44.350;9.222;2023-11-19T05:42:19;102112.72;;;9.94;100.00
32324;BME280;25666;44.350;9.222;2023-11-19T05:44:45;102111.78;;;9.98;100.00
32324;BME280;25666;44.350;9.222;2023-11-19T05:47:11;102116.94;;;10.05;100.00
32324;BME280;25666;44.350;9.222;2023-11-19T05:49:37;102114.34;;;10.08;100.00
32324;BME280;25666;44.350;9.222;2023-11-19T05:52:03;102118.69;;;10.01;100.00
32324;BME280;25666;44.350;9.222;2023-11-19T05:54:29;102110.63;;;9.99;100.00
32324;BME280;25666;44.350;9.222;2023-11-19T05:56:54;102106.84;;;9.95;100.00
32324;BME280;25666;44.350;9.222;2023-11-19T05:59:20;102113.81;;;10.06;100.00
32324;BME280;25666;44.350;9.222;2023-11-19T06:01:48;102110.22;;;10.06;100.00
32324;BME280;25666;44.350;9.222;2023-11-19T06:04:14;102119.91;;;10.08;100.00
32324;BME280;25666;44.350;9.222;2023-11-19T06:06:39;102107.56;;;10.14;100.00
32324;BME280;25666;44.350;9.222;2023-11-19T06:09:06;102108.34;;;10.15;100.00
32324;BME280;25666;44.350;9.222;2023-11-19T06:11:35;102119.19;;;10.16;100.00
32324;BME280;25666;44.350;9.222;2023-11-19T06:14:01;102117.22;;;10.17;100.00
32324;BME280;25666;44.350;9.222;2023-11-19T06:16:29;102112.69;;;10.21;100.00
32324;BME280;25666;44.350;9.222;2023-11-19T06:18:55;102104.50;;;10.25;100.00
32324;BME280;25666;44.350;9.222;2023-11-19T06:21:20;102111.94;;;10.29;100.00
32324;BME280;25666;44.350;9.222;2023-11-19T06:23:46;102103.25;;;10.31;100.00
32324;BME280;25666;44.350;9.222;2023-11-19T06:26:12;102096.88;;;10.30;100.00
32324;BME280;25666;44.350;9.222;2023-11-19T06:28:39;102098.69;;;10.35;100.00
32324;BME280;25666;44.350;9.222;2023-11-19T06:31:04;102105.16;;;10.44;100.00
32324;BME280;25666;44.350;9.222;2023-11-19T06:33:31;102101.69;;;10.38;100.00
32324;BME280;25666;44.350;9.222;2023-11-19T06:35:56;102098.75;;;10.43;100.00
32324;BME280;25666;44.350;9.222;2023-11-19T06:38:22;102102.91;;;10.46;100.00
32324;BME280;25666;44.350;9.222;2023-11-19T06:40:49;102113.94;;;10.59;100.00
32324;BME280;25666;44.350;9.222;2023-11-19T06:43:14;102114.47;;;10.61;100.00
32324;BME280;25666;44.350;9.222;2023-11-19T06:45:40;102114.31;;;10.66;100.00
32324;BME280;25666;44.350;9.222;2023-11-19T06:48:06;102118.13;;;10.70;100.00
32324;BME280;25666;44.350;9.222;2023-11-19T06:50:32;102125.69;;;10.79;100.00
32324;BME280;25666;44.350;9.222;2023-11-19T06:52:59;102128.19;;;10.80;100.00
32324;BME280;25666;44.350;9.222;2023-11-19T06:55:30;102127.84;;;10.82;100.00
32324;BME280;25666;44.350;9.222;2023-11-19T06:57:56;102112.84;;;10.91;100.00
32324;BME280;25666;44.350;9.222;2023-11-19T07:00:21;102125.81;;;10.96;100.00
32324;BME280;25666;44.350;9.222;2023-11-19T07:02:47;102136.03;;;11.09;100.00
32324;BME280;25666;44.350;9.222;2023-11-19T07:05:13;102133.88;;;11.06;100.00
32324;BME280;25666;44.350;9.222;2023-11-19T07:07:38;102126.34;;;11.06;100.00
32324;BME280;25666;44.350;9.222;2023-11-19T07:10:06;102135.56;;;11.15;100.00
32324;BME280;25666;44.350;9.222;2023-11-19T07:12:34;102132.47;;;11.17;100.00
32324;BME280;25666;44.350;9.222;2023-11-19T07:15:01;102125.28;;;11.24;100.00
32324;BME280;25666;44.350;9.222;2023-11-19T07:17:30;102125.16;;;11.29;100.00
32324;BME280;25666;44.350;9.222;2023-11-19T07:19:56;102130.06;;;11.24;100.00
32324;BME280;25666;44.350;9.222;2023-11-19T07:22:25;102130.72;;;11.29;100.00
32324;BME280;25666;44.350;9.222;2023-11-19T07:24:50;102138.44;;;11.33;100.00
32324;BME280;25666;44.350;9.222;2023-11-19T07:27:16;102128.63;;;11.35;100.00
32324;BME280;25666;44.350;9.222;2023-11-19T07:29:43;102135.69;;;11.41;100.00
32324;BME280;25666;44.350;9.222;2023-11-19T07:32:10;102125.69;;;11.40;100.00
32324;BME280;25666;44.350;9.222;2023-11-19T07:34:40;102133.06;;;11.36;100.00
32324;BME280;25666;44.350;9.222;2023-11-19T07:37:05;102125.97;;;11.30;100.00
32324;BME280;25666;44.350;9.222;2023-11-19T07:39:31;102125.00;;;11.35;100.00
32324;BME280;25666;44.350;9.222;2023-11-19T07:41:58;102124.34;;;11.38;100.00
32324;BME280;25666;44.350;9.222;2023-11-19T07:44:24;102130.75;;;11.38;100.00
32324;BME280;25666;44.350;9.222;2023-11-19T07:46:50;102123.38;;;11.34;100.00
32324;BME280;25666;44.350;9.222;2023-11-19T07:49:16;102126.50;;;11.41;100.00
32324;BME280;25666;44.350;9.222;2023-11-19T07:51:41;102126.19;;;11.42;100.00
32324;BME280;25666;44.350;9.222;2023-11-19T07:54:07;102122.09;;;11.48;100.00
32324;BME280;25666;44.350;9.222;2023-11-19T07:56:33;102122.94;;;11.49;100.00
32324;BME280;25666;44.350;9.222;2023-11-19T07:59:01;102116.19;;;11.50;100.00
32324;BME280;25666;44.350;9.222;2023-11-19T08:01:26;102123.59;;;11.54;100.00
32324;BME280;25666;44.350;9.222;2023-11-19T08:03:52;102125.44;;;11.59;100.00
32324;BME280;25666;44.350;9.222;2023-11-19T08:06:18;102127.91;;;11.69;100.00
32324;BME280;25666;44.350;9.222;2023-11-19T08:08:43;102121.69;;;11.72;100.00
32324;BME280;25666;44.350;9.222;2023-11-19T08:11:10;102124.28;;;11.68;100.00
32324;BME280;25666;44.350;9.222;2023-11-19T08:13:35;102119.44;;;11.74;100.00
32324;BME280;25666;44.350;9.222;2023-11-19T08:16:01;102112.88;;;11.78;100.00
32324;BME280;25666;44.350;9.222;2023-11-19T08:18:27;102109.94;;;11.92;100.00
32324;BME280;25666;44.350;9.222;2023-11-19T08:20:53;102107.63;;;11.94;100.00
32324;BME280;25666;44.350;9.222;2023-11-19T08:23:21;102104.53;;;11.96;100.00
32324;BME280;25666;44.350;9.222;2023-11-19T08:25:49;102107.19;;;12.18;100.00
32324;BME280;25666;44.350;9.222;2023-11-19T08:28:15;102102.56;;;12.13;100.00
32324;BME280;25666;44.350;9.222;2023-11-19T08:30:40;102101.25;;;12.19;100.00
32324;BME280;25666;44.350;9.222;2023-11-19T08:33:06;102109.31;;;12.29;100.00
32324;BME280;25666;44.350;9.222;2023-11-19T08:35:32;102110.59;;;12.41;100.00
32324;BME280;25666;44.350;9.222;2023-11-19T08:37:58;102096.97;;;12.39;100.00
32324;BME280;25666;44.350;9.222;2023-11-19T08:40:24;102098.13;;;12.38;100.00
32324;BME280;25666;44.350;9.222;2023-11-19T08:42:53;102098.63;;;12.40;100.00
32324;BME280;25666;44.350;9.222;2023-11-19T08:45:18;102103.34;;;12.74;100.00
32324;BME280;25666;44.350;9.222;2023-11-19T08:47:44;102094.81;;;12.53;100.00
32324;BME280;25666;44.350;9.222;2023-11-19T08:50:11;102089.91;;;12.59;100.00
32324;BME280;25666;44.350;9.222;2023-11-19T08:52:37;102085.44;;;12.66;100.00
32324;BME280;25666;44.350;9.222;2023-11-19T08:55:02;102087.25;;;12.71;100.00
32324;BME280;25666;44.350;9.222;2023-11-19T08:57:31;102096.25;;;12.76;100.00
32324;BME280;25666;44.350;9.222;2023-11-19T08:59:56;102089.69;;;12.72;100.00
32324;BME280;25666;44.350;9.222;2023-11-19T09:02:22;102090.50;;;12.73;100.00
32324;BME280;25666;44.350;9.222;2023-11-19T09:04:48;102088.72;;;12.77;100.00
32324;BME280;25666;44.350;9.222;2023-11-19T09:07:13;102103.50;;;12.77;100.00
32324;BME280;25666;44.350;9.222;2023-11-19T09:09:39;102101.00;;;12.84;100.00
32324;BME280;25666;44.350;9.222;2023-11-19T09:12:04;102098.19;;;12.84;100.00
32324;BME280;25666;44.350;9.222;2023-11-19T09:14:30;102093.28;;;12.90;100.00
32324;BME280;25666;44.350;9.222;2023-11-19T09:16:56;102101.47;;;12.95;100.00
32324;BME280;25666;44.350;9.222;2023-11-19T09:19:23;102095.22;;;12.98;100.00
32324;BME280;25666;44.350;9.222;2023-11-19T09:21:49;102098.16;;;13.02;100.00
32324;BME280;25666;44.350;9.222;2023-11-19T09:24:15;102097.97;;;13.07;100.00
32324;BME280;25666;44.350;9.222;2023-11-19T09:26:40;102100.94;;;13.10;100.00
32324;BME280;25666;44.350;9.222;2023-11-19T09:29:08;102095.31;;;13.19;100.00
32324;BME280;25666;44.350;9.222;2023-11-19T09:31:34;102099.09;;;13.23;100.00
32324;BME280;25666;44.350;9.222;2023-11-19T09:34:00;102090.13;;;13.38;100.00
32324;BME280;25666;44.350;9.222;2023-11-19T09:36:26;102085.91;;;13.61;100.00
32324;BME280;25666;44.350;9.222;2023-11-19T09:38:51;102082.13;;;13.86;100.00
32324;BME280;25666;44.350;9.222;2023-11-19T09:41:18;102092.91;;;13.97;100.00
32324;BME280;25666;44.350;9.222;2023-11-19T09:43:45;102082.34;;;14.02;100.00
32324;BME280;25666;44.350;9.222;2023-11-19T09:46:13;102076.31;;;14.12;100.00
32324;BME280;25666;44.350;9.222;2023-11-19T09:48:42;102083.97;;;14.24;100.00
32324;BME280;25666;44.350;9.222;2023-11-19T09:51:09;102072.50;;;14.37;100.00
32324;BME280;25666;44.350;9.222;2023-11-19T09:53:35;102076.38;;;14.45;100.00
32324;BME280;25666;44.350;9.222;2023-11-19T09:56:03;102077.34;;;14.49;100.00
32324;BME280;25666;44.350;9.222;2023-11-19T09:58:32;102069.66;;;14.58;100.00
32324;BME280;25666;44.350;9.222;2023-11-19T10:00:59;102071.25;;;14.80;100.00
32324;BME280;25666;44.350;9.222;2023-11-19T10:03:27;102064.63;;;14.96;100.00
32324;BME280;25666;44.350;9.222;2023-11-19T10:05:55;102059.47;;;15.11;100.00
32324;BME280;25666;44.350;9.222;2023-11-19T10:08:21;102052.84;;;15.15;100.00
32324;BME280;25666;44.350;9.222;2023-11-19T10:10:47;102040.69;;;15.23;100.00
32324;BME280;25666;44.350;9.222;2023-11-19T10:13:14;102050.63;;;15.33;100.00
32324;BME280;25666;44.350;9.222;2023-11-19T10:15:49;102038.22;;;15.34;100.00
32324;BME280;25666;44.350;9.222;2023-11-19T10:18:34;102045.25;;;15.40;100.00
32324;BME280;25666;44.350;9.222;2023-11-19T10:21:05;102049.00;;;15.44;100.00
32324;BME280;25666;44.350;9.222;2023-11-19T10:23:50;102032.16;;;15.44;100.00
32324;BME280;25666;44.350;9.222;2023-11-19T10:26:18;102032.75;;;15.62;100.00
32324;BME280;25666;44.350;9.222;2023-11-19T10:28:46;102039.19;;;15.62;100.00
32324;BME280;25666;44.350;9.222;2023-11-19T10:31:18;102033.00;;;15.57;100.00
32324;BME280;25666;44.350;9.222;2023-11-19T10:33:46;102024.69;;;15.48;100.00
32324;BME280;25666;44.350;9.222;2023-11-19T10:36:14;102034.47;;;15.42;100.00
32324;BME280;25666;44.350;9.222;2023-11-19T10:38:40;102027.69;;;15.43;100.00
32324;BME280;25666;44.350;9.222;2023-11-19T10:41:06;102030.97;;;15.45;100.00
32324;BME280;25666;44.350;9.222;2023-11-19T10:43:43;102036.25;;;15.46;100.00
32324;BME280;25666;44.350;9.222;2023-11-19T10:46:14;102030.06;;;15.53;100.00
32324;BME280;25666;44.350;9.222;2023-11-19T10:48:40;102022.81;;;15.52;100.00
32324;BME280;25666;44.350;9.222;2023-11-19T10:51:07;102030.28;;;15.48;100.00
32324;BME280;25666;44.350;9.222;2023-11-19T10:53:37;102031.22;;;15.52;100.00
32324;BME280;25666;44.350;9.222;2023-11-19T10:56:10;102031.78;;;15.70;100.00
32324;BME280;25666;44.350;9.222;2023-11-19T10:58:36;102026.41;;;15.65;100.00
32324;BME280;25666;44.350;9.222;2023-11-19T11:01:11;102025.94;;;15.75;100.00
32324;BME280;25666;44.350;9.222;2023-11-19T11:03:42;102021.34;;;15.82;100.00
32324;BME280;25666;44.350;9.222;2023-11-19T11:06:12;102025.44;;;15.85;100.00
32324;BME280;25666;44.350;9.222;2023-11-19T11:08:39;102016.69;;;15.74;100.00
32324;BME280;25666;44.350;9.222;2023-11-19T11:11:05;102009.53;;;15.77;100.00
32324;BME280;25666;44.350;9.222;2023-11-19T11:13:33;102022.34;;;16.02;100.00
32324;BME280;25666;44.350;9.222;2023-11-19T11:15:59;102016.78;;;16.18;100.00
32324;BME280;25666;44.350;9.222;2023-11-19T11:18:26;102016.06;;;16.21;100.00
32324;BME280;25666;44.350;9.222;2023-11-19T11:21:13;102013.34;;;16.24;100.00
32324;BME280;25666;44.350;9.222;2023-11-19T11:29:09;102013.84;;;16.42;100.00
32324;BME280;25666;44.350;9.222;2023-11-19T11:31:54;102005.78;;;16.40;100.00
32324;BME280;25666;44.350;9.222;2023-11-19T11:37:21;101988.44;;;16.38;100.00
32324;BME280;25666;44.350;9.222;2023-11-19T11:39:50;102005.06;;;16.43;100.00
32324;BME280;25666;44.350;9.222;2023-11-19T11:45:06;101992.91;;;16.39;100.00
32324;BME280;25666;44.350;9.222;2023-11-19T11:50:14;101980.66;;;16.32;100.00
32324;BME280;25666;44.350;9.222;2023-11-19T11:55:27;101987.72;;;16.41;100.00
32324;BME280;25666;44.350;9.222;2023-11-19T11:57:56;101942.97;;;16.48;100.00
32324;BME280;25666;44.350;9.222;2023-11-19T12:00:40;102003.91;;;16.44;100.00
32324;BME280;25666;44.350;9.222;2023-11-19T12:03:08;101973.59;;;16.38;100.00
32324;BME280;25666;44.350;9.222;2023-11-19T12:05:39;101936.25;;;16.37;100.00
32324;BME280;25666;44.350;9.222;2023-11-19T12:08:07;102001.78;;;16.41;100.00
32324;BME280;25666;44.350;9.222;2023-11-19T12:10:46;101957.38;;;16.31;100.00
32324;BME280;25666;44.350;9.222;2023-11-19T12:13:13;101948.47;;;16.29;100.00
32324;BME280;25666;44.350;9.222;2023-11-19T12:20:49;101946.28;;;16.23;100.00
32324;BME280;25666;44.350;9.222;2023-11-19T12:23:14;101974.31;;;16.35;100.00
32324;BME280;25666;44.350;9.222;2023-11-19T12:25:40;101955.00;;;16.33;100.00
32324;BME280;25666;44.350;9.222;2023-11-19T12:28:12;101937.81;;;16.35;100.00
32324;BME280;25666;44.350;9.222;2023-11-19T12:30:40;101963.16;;;16.38;100.00
32324;BME280;25666;44.350;9.222;2023-11-19T12:33:09;101945.50;;;16.38;100.00
32324;BME280;25666;44.350;9.222;2023-11-19T12:35:46;101937.59;;;16.28;100.00
32324;BME280;25666;44.350;9.222;2023-11-19T12:38:22;101957.81;;;16.33;100.00
32324;BME280;25666;44.350;9.222;2023-11-19T12:41:09;101948.38;;;16.26;100.00
32324;BME280;25666;44.350;9.222;2023-11-19T12:43:37;101951.75;;;16.31;100.00
32324;BME280;25666;44.350;9.222;2023-11-19T12:46:21;101953.28;;;16.29;100.00
32324;BME280;25666;44.350;9.222;2023-11-19T12:48:47;101933.06;;;16.23;100.00
32324;BME280;25666;44.350;9.222;2023-11-19T12:51:13;101929.91;;;16.25;100.00
32324;BME280;25666;44.350;9.222;2023-11-19T12:53:49;101938.44;;;16.28;100.00
32324;BME280;25666;44.350;9.222;2023-11-19T12:56:16;101918.75;;;16.28;100.00
32324;BME280;25666;44.350;9.222;2023-11-19T12:58:41;101901.81;;;16.25;100.00
32324;BME280;25666;44.350;9.222;2023-11-19T13:01:08;101915.66;;;16.33;100.00
32324;BME280;25666;44.350;9.222;2023-11-19T13:03:37;101899.53;;;16.30;100.00
32324;BME280;25666;44.350;9.222;2023-11-19T13:06:07;101905.59;;;16.32;100.00
32324;BME280;25666;44.350;9.222;2023-11-19T13:08:41;101885.03;;;16.28;100.00